createdAt,value
2022-09-30T00:00:20.382Z,4.50
2022-09-30T00:00:52.412Z,4.67
2022-09-30T00:01:29.352Z,4.20
2022-09-30T00:02:01.562Z,4.90
2022-09-30T00:02:33.659Z,4.30
2022-09-30T00:03:05.735Z,4.20
2022-09-30T00:03:37.845Z,4.67
2022-09-30T00:04:13.023Z,4.70
2022-09-30T00:04:45.010Z,3.93
2022-09-30T00:05:17.189Z,4.37
2022-09-30T00:05:55.354Z,4.27
2022-09-30T00:06:28.138Z,4.50
2022-09-30T00:07:00.128Z,4.00
2022-09-30T00:07:32.147Z,3.97
2022-09-30T00:08:04.276Z,4.10
2022-09-30T00:08:39.450Z,4.50
2022-09-30T00:09:12.877Z,4.20
2022-09-30T00:09:45.074Z,4.67
2022-09-30T00:10:17.334Z,4.13
2022-09-30T00:10:58.111Z,4.63
2022-09-30T00:11:31.246Z,4.27
2022-09-30T00:12:03.361Z,4.10
2022-09-30T00:12:35.564Z,4.17
2022-09-30T00:13:07.555Z,4.07
2022-09-30T00:13:40.145Z,4.13
2022-09-30T00:14:19.720Z,4.37
2022-09-30T00:14:51.803Z,4.10
2022-09-30T00:15:24.131Z,4.10
2022-09-30T00:15:56.210Z,3.90
2022-09-30T00:16:29.835Z,4.10
2022-09-30T00:17:02.077Z,3.63
2022-09-30T00:17:34.158Z,4.30
2022-09-30T00:18:06.261Z,4.13
2022-09-30T00:18:38.780Z,3.57
2022-09-30T00:19:11.311Z,4.20
2022-09-30T00:19:43.675Z,4.20
2022-09-30T00:20:15.813Z,3.70
2022-09-30T00:20:47.939Z,4.00
2022-09-30T00:21:19.937Z,4.20
2022-09-30T00:21:51.857Z,3.93
2022-09-30T00:22:23.848Z,3.50
2022-09-30T00:22:55.892Z,4.10
2022-09-30T00:23:28.011Z,3.70
2022-09-30T00:24:00.588Z,3.90
2022-09-30T00:24:32.519Z,3.90
2022-09-30T00:25:04.672Z,4.00
2022-09-30T00:25:36.644Z,3.67
2022-09-30T00:26:12.152Z,3.70
2022-09-30T00:26:44.218Z,3.37
2022-09-30T00:27:18.232Z,3.50
2022-09-30T00:27:50.224Z,3.87
2022-09-30T00:28:22.639Z,4.30
2022-09-30T00:28:56.030Z,3.83
2022-09-30T00:29:28.044Z,4.17
2022-09-30T00:30:00.031Z,3.80
2022-09-30T00:30:32.804Z,3.80
2022-09-30T00:31:06.462Z,3.67
2022-09-30T00:31:38.612Z,3.63
2022-09-30T00:32:10.840Z,3.80
2022-09-30T00:32:42.815Z,3.83
2022-09-30T00:33:14.833Z,3.60
2022-09-30T00:34:06.778Z,3.53
2022-09-30T00:34:38.864Z,3.63
2022-09-30T00:35:10.823Z,3.60
2022-09-30T00:35:42.845Z,3.83
2022-09-30T00:36:14.842Z,3.27
2022-09-30T00:36:50.899Z,3.80
2022-09-30T00:37:22.945Z,3.33
2022-09-30T00:37:55.234Z,3.17
2022-09-30T00:38:27.345Z,3.60
2022-09-30T00:38:59.345Z,3.70
2022-09-30T00:39:31.474Z,3.40
2022-09-30T00:40:03.571Z,3.23
2022-09-30T00:40:38.227Z,3.50
2022-09-30T00:41:10.211Z,3.60
2022-09-30T00:41:42.519Z,3.00
2022-09-30T00:42:15.092Z,3.23
2022-09-30T00:42:47.181Z,3.73
2022-09-30T00:43:20.873Z,3.47
2022-09-30T00:43:53.789Z,3.23
2022-09-30T00:44:45.307Z,3.37
2022-09-30T00:45:21.159Z,3.30
2022-09-30T00:45:58.989Z,3.20
2022-09-30T00:46:38.936Z,2.97
2022-09-30T00:47:25.072Z,3.20
2022-09-30T00:48:15.349Z,3.23
2022-09-30T00:48:50.929Z,3.30
2022-09-30T00:49:24.769Z,3.10
2022-09-30T00:49:59.817Z,3.33
2022-09-30T00:50:31.822Z,3.47
2022-09-30T00:51:04.808Z,3.30
2022-09-30T00:51:39.193Z,3.23
2022-09-30T00:52:11.238Z,3.03
2022-09-30T00:52:44.727Z,3.50
2022-09-30T00:53:20.114Z,3.40
2022-09-30T00:53:54.353Z,3.20
2022-09-30T00:54:29.207Z,2.60
2022-09-30T00:55:01.803Z,3.00
2022-09-30T00:55:36.600Z,2.93
2022-09-30T00:56:18.750Z,3.57
2022-09-30T00:56:52.986Z,3.00
2022-09-30T00:57:25.034Z,2.60
2022-09-30T00:57:57.721Z,2.63
2022-09-30T00:58:31.268Z,3.30
2022-09-30T00:59:08.601Z,3.10
2022-09-30T00:59:43.103Z,2.93
2022-09-30T01:00:15.119Z,3.20
2022-09-30T01:00:47.419Z,2.80
2022-09-30T01:01:19.572Z,2.77
2022-09-30T01:01:52.143Z,3.00
2022-09-30T01:02:24.234Z,3.00
2022-09-30T01:02:56.293Z,3.00
2022-09-30T01:03:33.461Z,3.10
2022-09-30T01:04:07.228Z,2.60
2022-09-30T01:04:39.207Z,2.87
2022-09-30T01:05:11.719Z,2.90
2022-09-30T01:05:43.994Z,2.67
2022-09-30T01:06:16.762Z,2.73
2022-09-30T01:06:49.457Z,3.13
2022-09-30T01:07:22.385Z,2.80
2022-09-30T01:07:56.326Z,2.97
2022-09-30T01:08:28.605Z,2.80
2022-09-30T01:09:01.286Z,3.10
2022-09-30T01:09:34.259Z,2.83
2022-09-30T01:10:06.480Z,2.80
2022-09-30T01:10:38.758Z,2.60
2022-09-30T01:11:10.787Z,2.70
2022-09-30T01:11:43.184Z,2.80
2022-09-30T01:12:20.817Z,2.60
2022-09-30T01:12:53.042Z,2.60
2022-09-30T01:13:27.379Z,3.03
2022-09-30T01:14:04.503Z,2.87
2022-09-30T01:14:37.559Z,2.70
2022-09-30T01:15:09.778Z,2.80
2022-09-30T01:15:51.732Z,2.63
2022-09-30T01:16:26.706Z,2.70
2022-09-30T01:17:07.965Z,2.90
2022-09-30T01:17:47.006Z,2.83
2022-09-30T01:18:24.208Z,2.57
2022-09-30T01:19:14.168Z,3.13
2022-09-30T01:20:04.799Z,2.90
2022-09-30T01:20:45.854Z,2.90
2022-09-30T01:21:17.767Z,2.53
2022-09-30T01:21:49.778Z,2.80
2022-09-30T01:22:29.374Z,2.70
2022-09-30T01:23:12.179Z,2.70
2022-09-30T01:23:47.162Z,2.90
2022-09-30T01:24:19.114Z,2.50
2022-09-30T01:25:13.275Z,3.33
2022-09-30T01:26:03.318Z,2.90
2022-09-30T01:26:35.278Z,2.70
2022-09-30T01:27:10.011Z,2.80
2022-09-30T01:27:57.142Z,2.93
2022-09-30T01:28:42.304Z,2.50
2022-09-30T01:29:14.285Z,2.47
2022-09-30T01:29:58.156Z,2.77
2022-09-30T01:30:48.944Z,2.60
2022-09-30T01:31:43.213Z,2.93
2022-09-30T01:32:24.324Z,2.80
2022-09-30T01:33:04.110Z,2.70
2022-09-30T01:33:54.473Z,2.70
2022-09-30T01:34:37.451Z,2.50
2022-09-30T01:35:34.950Z,2.40
2022-09-30T01:36:21.924Z,2.50
2022-09-30T01:37:03.730Z,2.60
2022-09-30T01:37:55.666Z,2.57
2022-09-30T01:38:29.406Z,2.50
2022-09-30T01:39:01.390Z,2.80
2022-09-30T01:39:33.390Z,2.80
2022-09-30T01:40:09.030Z,2.60
2022-09-30T01:40:49.279Z,2.53
2022-09-30T01:41:30.004Z,3.17
2022-09-30T01:42:01.998Z,2.77
2022-09-30T01:42:51.529Z,2.60
2022-09-30T01:43:32.031Z,2.90
2022-09-30T01:44:11.268Z,2.70
2022-09-30T01:44:49.707Z,2.87
2022-09-30T01:45:35.749Z,2.20
2022-09-30T01:46:13.879Z,2.40
2022-09-30T01:46:55.572Z,2.60
2022-09-30T01:47:30.907Z,2.43
2022-09-30T01:48:14.472Z,2.30
2022-09-30T01:48:51.276Z,2.37
2022-09-30T01:49:32.018Z,2.57
2022-09-30T01:50:14.592Z,2.63
2022-09-30T01:50:55.532Z,2.67
2022-09-30T01:51:35.261Z,2.90
2022-09-30T01:52:10.940Z,2.70
2022-09-30T01:52:42.944Z,2.77
2022-09-30T01:53:25.050Z,2.40
2022-09-30T01:53:59.513Z,2.83
2022-09-30T01:54:31.428Z,2.30
2022-09-30T01:55:15.550Z,2.37
2022-09-30T01:55:47.577Z,2.93
2022-09-30T01:56:29.897Z,2.73
2022-09-30T01:57:08.821Z,2.40
2022-09-30T01:57:53.051Z,2.20
2022-09-30T01:58:33.036Z,2.47
2022-09-30T01:59:07.916Z,2.40
2022-09-30T01:59:44.735Z,2.57
2022-09-30T02:00:16.950Z,2.30
2022-09-30T02:00:50.696Z,2.57
2022-09-30T02:01:31.718Z,2.60
2022-09-30T02:02:10.800Z,2.27
2022-09-30T02:03:05.758Z,2.40
2022-09-30T02:03:39.932Z,2.47
2022-09-30T02:04:17.407Z,2.47
2022-09-30T02:04:53.620Z,2.40
2022-09-30T02:05:33.009Z,2.53
2022-09-30T02:06:07.528Z,2.63
2022-09-30T02:06:41.808Z,2.33
2022-09-30T02:07:17.617Z,2.60
2022-09-30T02:07:53.397Z,2.67
2022-09-30T02:08:35.271Z,2.50
2022-09-30T02:09:11.947Z,2.20
2022-09-30T02:09:49.991Z,2.50
2022-09-30T02:10:48.598Z,2.50
2022-09-30T02:11:25.266Z,2.43
2022-09-30T02:11:59.846Z,2.67
2022-09-30T02:12:33.948Z,2.47
2022-09-30T02:13:20.986Z,2.97
2022-09-30T02:13:55.624Z,2.43
2022-09-30T02:14:33.828Z,2.37
2022-09-30T02:15:08.147Z,2.40
2022-09-30T02:15:43.182Z,2.30
2022-09-30T02:16:18.145Z,2.63
2022-09-30T02:16:53.187Z,2.57
2022-09-30T02:17:34.002Z,2.43
2022-09-30T02:18:10.982Z,2.63
2022-09-30T02:18:47.202Z,2.23
2022-09-30T02:19:31.406Z,2.50
2022-09-30T02:20:05.825Z,2.67
2022-09-30T02:20:40.863Z,2.20
2022-09-30T02:21:14.860Z,2.20
2022-09-30T02:21:56.230Z,2.10
2022-09-30T02:22:32.390Z,2.67
2022-09-30T02:23:04.436Z,2.20
2022-09-30T02:23:41.912Z,2.47
2022-09-30T02:24:16.402Z,2.50
2022-09-30T02:24:52.970Z,2.20
2022-09-30T02:25:27.917Z,2.53
2022-09-30T02:26:06.877Z,2.50
2022-09-30T02:26:40.904Z,2.70
2022-09-30T02:27:19.841Z,2.73
2022-09-30T02:27:55.000Z,2.50
2022-09-30T02:28:29.311Z,2.60
2022-09-30T02:29:05.212Z,2.40
2022-09-30T02:29:39.562Z,2.60
2022-09-30T02:30:12.467Z,2.53
2022-09-30T02:30:47.686Z,2.57
2022-09-30T02:31:21.738Z,2.57
2022-09-30T02:31:55.859Z,3.10
2022-09-30T02:32:30.985Z,2.80
2022-09-30T02:33:04.623Z,2.60
2022-09-30T02:33:46.032Z,2.87
2022-09-30T02:34:39.371Z,2.40
2022-09-30T02:35:18.528Z,2.60
2022-09-30T02:35:54.367Z,2.50
2022-09-30T02:36:29.175Z,2.83
2022-09-30T02:37:04.711Z,2.67
2022-09-30T02:37:39.868Z,2.70
2022-09-30T02:38:15.934Z,2.40
2022-09-30T02:38:50.530Z,2.83
2022-09-30T02:39:27.319Z,2.70
2022-09-30T02:40:11.172Z,2.80
2022-09-30T02:41:06.466Z,2.90
2022-09-30T02:41:42.986Z,2.50
2022-09-30T02:42:20.528Z,2.80
2022-09-30T02:42:52.860Z,2.60
2022-09-30T02:43:25.643Z,2.83
2022-09-30T02:43:58.089Z,2.90
2022-09-30T02:44:31.824Z,2.97
2022-09-30T02:45:09.295Z,2.90
2022-09-30T02:45:59.915Z,2.50
2022-09-30T02:46:41.237Z,2.80
2022-09-30T02:47:36.441Z,2.57
2022-09-30T02:48:27.692Z,3.10
2022-09-30T02:49:02.483Z,2.70
2022-09-30T02:49:42.857Z,2.90
2022-09-30T02:50:18.309Z,2.43
2022-09-30T02:50:53.460Z,2.70
2022-09-30T02:51:40.553Z,2.70
2022-09-30T02:52:35.427Z,2.60
2022-09-30T02:53:15.463Z,2.90
2022-09-30T02:53:53.232Z,3.03
2022-09-30T02:54:34.243Z,2.60
2022-09-30T02:55:21.649Z,2.63
2022-09-30T02:56:12.111Z,2.30
2022-09-30T02:56:50.237Z,2.83
2022-09-30T02:57:48.543Z,2.87
2022-09-30T02:58:21.575Z,2.60
2022-09-30T02:58:56.330Z,2.97
2022-09-30T02:59:28.422Z,2.63
2022-09-30T03:00:03.158Z,2.73
2022-09-30T03:00:36.010Z,2.37
2022-09-30T03:01:09.363Z,2.67
2022-09-30T03:01:42.223Z,2.60
2022-09-30T03:02:14.652Z,2.77
2022-09-30T03:02:46.733Z,2.80
2022-09-30T03:03:21.007Z,2.67
2022-09-30T03:03:57.881Z,2.73
2022-09-30T03:04:33.361Z,2.50
2022-09-30T03:05:05.601Z,2.90
2022-09-30T03:05:37.695Z,3.00
2022-09-30T03:06:10.344Z,2.57
2022-09-30T03:06:42.373Z,2.73
2022-09-30T03:07:14.593Z,2.67
2022-09-30T03:07:46.699Z,2.50
2022-09-30T03:08:18.717Z,2.70
2022-09-30T03:08:52.131Z,2.70
2022-09-30T03:09:25.019Z,2.67
2022-09-30T03:10:00.534Z,2.60
2022-09-30T03:10:33.159Z,2.87
2022-09-30T03:11:05.717Z,2.80
2022-09-30T03:11:38.393Z,2.70
2022-09-30T03:12:20.006Z,2.50
2022-09-30T03:13:04.116Z,2.40
2022-09-30T03:13:55.793Z,2.50
2022-09-30T03:14:45.336Z,2.77
2022-09-30T03:15:29.705Z,2.73
2022-09-30T03:16:09.828Z,2.50
2022-09-30T03:16:45.171Z,2.50
2022-09-30T03:17:19.991Z,2.50
2022-09-30T03:17:52.125Z,2.77
2022-09-30T03:18:36.662Z,2.80
2022-09-30T03:19:11.397Z,2.73
2022-09-30T03:20:01.649Z,2.70
2022-09-30T03:20:45.622Z,2.73
2022-09-30T03:21:38.695Z,2.80
2022-09-30T03:22:28.974Z,2.50
2022-09-30T03:23:18.635Z,2.90
2022-09-30T03:24:05.904Z,2.60
2022-09-30T03:24:45.991Z,2.50
2022-09-30T03:25:18.023Z,2.63
2022-09-30T03:26:03.804Z,2.90
2022-09-30T03:26:52.583Z,2.50
2022-09-30T03:27:27.597Z,2.77
2022-09-30T03:28:15.172Z,2.37
2022-09-30T03:29:06.763Z,3.03
2022-09-30T03:30:05.416Z,2.70
2022-09-30T03:30:43.969Z,2.80
2022-09-30T03:31:24.906Z,2.60
2022-09-30T03:32:05.989Z,2.60
2022-09-30T03:32:38.021Z,2.47
2022-09-30T03:33:10.088Z,2.40
2022-09-30T03:34:01.290Z,2.50
2022-09-30T03:34:50.213Z,2.50
2022-09-30T03:35:37.691Z,2.97
2022-09-30T03:36:15.399Z,2.97
2022-09-30T03:37:04.412Z,2.80
2022-09-30T03:37:55.309Z,2.73
2022-09-30T03:38:27.367Z,2.60
2022-09-30T03:39:05.595Z,2.60
2022-09-30T03:39:45.645Z,2.40
2022-09-30T03:40:37.989Z,3.13
2022-09-30T03:41:28.771Z,2.60
2022-09-30T03:42:09.413Z,2.80
2022-09-30T03:42:44.822Z,3.03
2022-09-30T03:43:20.343Z,2.70
2022-09-30T03:43:57.738Z,3.00
2022-09-30T03:44:29.710Z,2.53
2022-09-30T03:45:11.543Z,3.40
2022-09-30T03:45:48.334Z,2.73
2022-09-30T03:46:38.011Z,2.90
2022-09-30T03:47:11.753Z,2.53
2022-09-30T03:47:46.205Z,2.73
2022-09-30T03:48:18.696Z,2.87
2022-09-30T03:48:52.934Z,2.70
2022-09-30T03:49:26.671Z,2.37
2022-09-30T03:50:00.489Z,2.77
2022-09-30T03:50:33.783Z,2.27
2022-09-30T03:51:06.830Z,2.80
2022-09-30T03:51:39.842Z,2.57
2022-09-30T03:52:13.705Z,2.40
2022-09-30T03:52:45.943Z,2.50
2022-09-30T03:53:18.055Z,2.50
2022-09-30T03:53:51.072Z,2.83
2022-09-30T03:54:23.271Z,2.90
2022-09-30T03:54:58.635Z,2.50
2022-09-30T03:55:31.649Z,2.67
2022-09-30T03:56:03.619Z,2.70
2022-09-30T03:56:35.930Z,2.37
2022-09-30T03:57:07.917Z,2.60
2022-09-30T03:57:39.954Z,2.50
2022-09-30T03:58:11.997Z,2.73
2022-09-30T03:58:44.460Z,2.70
2022-09-30T03:59:24.066Z,2.63
2022-09-30T03:59:56.804Z,2.60
2022-09-30T04:00:28.968Z,3.07
2022-09-30T04:01:01.038Z,3.03
2022-09-30T04:01:33.087Z,2.70
2022-09-30T04:02:07.006Z,3.00
2022-09-30T04:02:39.066Z,2.80
2022-09-30T04:03:11.206Z,2.80
2022-09-30T04:03:43.290Z,3.17
2022-09-30T04:04:15.270Z,3.43
2022-09-30T04:04:47.729Z,3.07
2022-09-30T04:05:19.784Z,3.33
2022-09-30T04:05:51.769Z,3.40
2022-09-30T04:06:24.511Z,3.00
2022-09-30T04:06:56.504Z,3.37
2022-09-30T04:07:28.555Z,3.40
2022-09-30T04:08:00.654Z,3.63
2022-09-30T04:08:33.971Z,3.60
2022-09-30T04:09:06.120Z,4.00
2022-09-30T04:09:38.741Z,3.23
2022-09-30T04:10:11.908Z,3.20
2022-09-30T04:10:43.954Z,3.63
2022-09-30T04:11:16.288Z,3.90
2022-09-30T04:11:48.294Z,3.70
2022-09-30T04:12:20.447Z,3.87
2022-09-30T04:12:53.646Z,3.50
2022-09-30T04:13:25.648Z,3.50
2022-09-30T04:13:57.764Z,3.67
2022-09-30T04:14:29.928Z,3.77
2022-09-30T04:15:01.988Z,3.67
2022-09-30T04:15:34.611Z,3.60
2022-09-30T04:16:08.071Z,3.53
2022-09-30T04:16:40.144Z,3.70
2022-09-30T04:17:12.258Z,4.00
2022-09-30T04:17:44.337Z,3.93
2022-09-30T04:18:16.429Z,4.13
2022-09-30T04:18:48.400Z,3.73
2022-09-30T04:19:20.469Z,3.90
2022-09-30T04:19:52.716Z,3.80
2022-09-30T04:20:24.804Z,3.80
2022-09-30T04:20:57.393Z,4.23
2022-09-30T04:21:29.506Z,3.77
2022-09-30T04:22:02.072Z,3.60
2022-09-30T04:22:34.186Z,3.67
2022-09-30T04:23:06.289Z,4.00
2022-09-30T04:23:39.134Z,3.80
2022-09-30T04:24:11.162Z,3.43
2022-09-30T04:24:43.909Z,3.90
2022-09-30T04:25:16.321Z,3.73
2022-09-30T04:25:55.169Z,3.70
2022-09-30T04:26:27.203Z,3.80
2022-09-30T04:26:59.224Z,4.00
2022-09-30T04:27:31.252Z,3.47
2022-09-30T04:28:03.288Z,3.43
2022-09-30T04:28:36.075Z,3.60
2022-09-30T04:29:08.073Z,4.20
2022-09-30T04:29:40.081Z,3.70
2022-09-30T04:30:12.050Z,3.57
2022-09-30T04:30:44.019Z,3.80
2022-09-30T04:31:17.809Z,3.40
2022-09-30T04:31:49.972Z,3.13
2022-09-30T04:32:22.645Z,3.90
2022-09-30T04:32:54.773Z,4.30
2022-09-30T04:33:27.129Z,3.93
2022-09-30T04:33:59.108Z,3.60
2022-09-30T04:34:31.210Z,3.90
2022-09-30T04:35:03.978Z,3.33
2022-09-30T04:35:36.868Z,3.53
2022-09-30T04:36:09.739Z,3.90
2022-09-30T04:36:41.839Z,3.17
2022-09-30T04:37:14.131Z,3.67
2022-09-30T04:37:47.128Z,3.57
2022-09-30T04:38:19.266Z,4.07
2022-09-30T04:38:53.093Z,3.80
2022-09-30T04:39:25.080Z,3.40
2022-09-30T04:39:57.037Z,3.13
2022-09-30T04:40:29.023Z,3.30
2022-09-30T04:41:05.530Z,3.60
2022-09-30T04:41:38.274Z,2.87
2022-09-30T04:42:11.372Z,3.90
2022-09-30T04:42:44.005Z,3.33
2022-09-30T04:43:17.664Z,3.27
2022-09-30T04:43:49.615Z,3.83
2022-09-30T04:44:21.645Z,3.23
2022-09-30T04:44:53.671Z,3.20
2022-09-30T04:45:26.113Z,3.13
2022-09-30T04:45:58.259Z,3.20
2022-09-30T04:46:30.334Z,3.73
2022-09-30T04:47:02.406Z,3.73
2022-09-30T04:47:34.452Z,3.17
2022-09-30T04:48:06.595Z,3.17
2022-09-30T04:48:38.603Z,4.00
2022-09-30T04:49:10.687Z,3.40
2022-09-30T04:49:42.675Z,3.80
2022-09-30T04:50:14.740Z,3.40
2022-09-30T04:50:46.706Z,3.03
2022-09-30T04:51:19.914Z,3.40
2022-09-30T04:51:51.925Z,3.30
2022-09-30T04:52:23.924Z,3.47
2022-09-30T04:52:57.281Z,3.77
2022-09-30T04:53:30.274Z,3.83
2022-09-30T04:54:02.881Z,3.80
2022-09-30T04:54:34.811Z,3.70
2022-09-30T04:55:07.340Z,3.50
2022-09-30T04:55:39.359Z,3.47
2022-09-30T04:56:11.616Z,3.70
2022-09-30T04:56:43.654Z,3.80
2022-09-30T04:57:15.702Z,3.63
2022-09-30T04:57:49.227Z,3.70
2022-09-30T04:58:21.299Z,4.17
2022-09-30T04:58:54.414Z,3.73
2022-09-30T04:59:26.459Z,4.10
2022-09-30T04:59:58.813Z,4.10
2022-09-30T05:00:30.981Z,4.33
2022-09-30T05:01:10.326Z,4.10
2022-09-30T05:01:44.541Z,4.00
2022-09-30T05:02:17.074Z,3.90
2022-09-30T05:02:49.170Z,3.87
2022-09-30T05:03:21.263Z,4.03
2022-09-30T05:03:54.148Z,4.73
2022-09-30T05:04:26.233Z,3.73
2022-09-30T05:04:58.303Z,4.83
2022-09-30T05:05:30.580Z,4.60
2022-09-30T05:06:03.137Z,4.10
2022-09-30T05:06:35.194Z,4.40
2022-09-30T05:07:08.925Z,4.37
2022-09-30T05:07:41.045Z,4.40
2022-09-30T05:08:13.099Z,4.30
2022-09-30T05:08:46.387Z,4.10
2022-09-30T05:09:18.571Z,4.30
2022-09-30T05:09:50.573Z,4.57
2022-09-30T05:10:22.569Z,4.20
2022-09-30T05:10:58.205Z,4.33
2022-09-30T05:11:30.199Z,4.43
2022-09-30T05:12:03.345Z,4.10
2022-09-30T05:12:35.337Z,4.33
2022-09-30T05:13:07.336Z,3.90
2022-09-30T05:13:40.071Z,4.17
2022-09-30T05:14:12.145Z,5.17
2022-09-30T05:14:44.181Z,4.20
2022-09-30T05:15:16.262Z,4.47
2022-09-30T05:15:48.897Z,4.10
2022-09-30T05:16:21.778Z,4.43
2022-09-30T05:16:53.848Z,4.77
2022-09-30T05:17:25.921Z,4.57
2022-09-30T05:17:58.650Z,4.30
2022-09-30T05:18:30.656Z,4.80
2022-09-30T05:19:02.781Z,4.20
2022-09-30T05:19:34.737Z,4.53
2022-09-30T05:20:10.772Z,4.23
2022-09-30T05:20:42.795Z,4.57
2022-09-30T05:21:16.098Z,4.73
2022-09-30T05:21:48.091Z,4.37
2022-09-30T05:22:20.208Z,4.50
2022-09-30T05:22:56.234Z,4.70
2022-09-30T05:23:30.361Z,4.37
2022-09-30T05:24:02.635Z,4.67
2022-09-30T05:24:34.685Z,5.13
2022-09-30T05:25:07.379Z,5.10
2022-09-30T05:25:39.419Z,4.97
2022-09-30T05:26:12.777Z,4.57
2022-09-30T05:26:45.031Z,4.83
2022-09-30T05:27:18.019Z,4.50
2022-09-30T05:27:50.805Z,4.73
2022-09-30T05:28:22.871Z,4.60
2022-09-30T05:28:54.888Z,4.93
2022-09-30T05:29:27.433Z,4.43
2022-09-30T05:29:59.450Z,4.97
2022-09-30T05:30:31.489Z,4.50
2022-09-30T05:31:06.365Z,4.60
2022-09-30T05:31:38.630Z,4.37
2022-09-30T05:32:10.820Z,4.20
2022-09-30T05:32:42.786Z,4.80
2022-09-30T05:33:14.725Z,4.40
2022-09-30T05:33:47.063Z,4.50
2022-09-30T05:34:19.074Z,4.43
2022-09-30T05:34:51.645Z,4.00
2022-09-30T05:35:23.606Z,4.87
2022-09-30T05:35:58.527Z,4.70
2022-09-30T05:36:30.448Z,4.53
2022-09-30T05:37:02.515Z,4.40
2022-09-30T05:37:34.791Z,5.43
2022-09-30T05:38:07.145Z,4.57
2022-09-30T05:38:39.209Z,4.50
2022-09-30T05:39:11.473Z,4.50
2022-09-30T05:39:43.613Z,4.30
2022-09-30T05:40:15.751Z,4.27
2022-09-30T05:40:48.807Z,4.10
2022-09-30T05:41:22.019Z,4.30
2022-09-30T05:41:56.183Z,4.40
2022-09-30T05:42:28.201Z,4.13
2022-09-30T05:43:00.703Z,4.40
2022-09-30T05:43:33.051Z,4.53
2022-09-30T05:44:05.129Z,4.63
2022-09-30T05:44:37.167Z,3.80
2022-09-30T05:45:09.313Z,4.17
2022-09-30T05:45:41.295Z,3.87
2022-09-30T05:46:13.754Z,4.50
2022-09-30T05:46:45.887Z,4.13
2022-09-30T05:47:18.095Z,4.13
2022-09-30T05:47:53.602Z,4.07
2022-09-30T05:48:25.955Z,4.20
2022-09-30T05:49:00.884Z,4.57
2022-09-30T05:49:34.496Z,4.10
2022-09-30T05:50:06.603Z,3.97
2022-09-30T05:50:38.558Z,4.07
2022-09-30T05:51:10.565Z,4.20
2022-09-30T05:51:42.828Z,3.70
2022-09-30T05:52:14.903Z,4.30
2022-09-30T05:52:46.905Z,4.10
2022-09-30T05:53:19.172Z,4.07
2022-09-30T05:53:51.763Z,4.17
2022-09-30T05:54:23.735Z,3.67
2022-09-30T05:54:57.634Z,4.10
2022-09-30T05:55:30.047Z,3.77
2022-09-30T05:56:02.173Z,4.00
2022-09-30T05:56:38.295Z,4.10
2022-09-30T05:57:10.478Z,3.80
2022-09-30T05:57:43.302Z,4.10
2022-09-30T05:58:15.551Z,3.43
2022-09-30T05:58:47.589Z,3.80
2022-09-30T05:59:19.943Z,4.00
2022-09-30T05:59:52.122Z,4.00
2022-09-30T06:00:24.135Z,3.87
2022-09-30T06:00:56.141Z,3.80
2022-09-30T06:01:28.244Z,3.70
2022-09-30T06:02:00.363Z,3.50
2022-09-30T06:02:33.544Z,3.80
2022-09-30T06:03:05.628Z,3.60
2022-09-30T06:03:38.421Z,3.63
2022-09-30T06:04:10.497Z,3.93
2022-09-30T06:04:42.496Z,3.77
2022-09-30T06:05:14.504Z,4.20
2022-09-30T06:05:46.596Z,4.03
2022-09-30T06:06:19.684Z,3.60
2022-09-30T06:06:51.680Z,3.43
2022-09-30T06:07:23.632Z,3.80
2022-09-30T06:07:55.584Z,3.40
2022-09-30T06:08:27.978Z,3.77
2022-09-30T06:09:00.322Z,3.70
2022-09-30T06:09:32.628Z,3.70
2022-09-30T06:10:05.915Z,3.73
2022-09-30T06:10:40.198Z,4.13
2022-09-30T06:11:13.508Z,3.73
2022-09-30T06:11:45.514Z,3.20
2022-09-30T06:12:17.484Z,3.50
2022-09-30T06:12:49.493Z,3.47
2022-09-30T06:13:22.155Z,3.37
2022-09-30T06:13:54.152Z,3.73
2022-09-30T06:14:26.241Z,4.10
2022-09-30T06:14:58.323Z,3.50
2022-09-30T06:15:30.310Z,4.00
2022-09-30T06:16:02.601Z,3.80
2022-09-30T06:16:34.774Z,3.57
2022-09-30T06:17:06.823Z,3.27
2022-09-30T06:17:38.826Z,3.40
2022-09-30T06:18:15.806Z,3.73
2022-09-30T06:18:49.792Z,3.50
2022-09-30T06:19:21.804Z,3.77
2022-09-30T06:19:53.770Z,3.10
2022-09-30T06:20:25.808Z,3.50
2022-09-30T06:21:01.927Z,3.57
2022-09-30T06:21:33.891Z,3.57
2022-09-30T06:22:05.888Z,3.70
2022-09-30T06:22:37.896Z,3.90
2022-09-30T06:23:09.950Z,3.93
2022-09-30T06:23:42.044Z,3.77
2022-09-30T06:24:14.728Z,3.37
2022-09-30T06:24:47.437Z,3.67
2022-09-30T06:25:21.470Z,3.27
2022-09-30T06:25:54.068Z,3.40
2022-09-30T06:26:27.244Z,3.80
2022-09-30T06:26:59.166Z,3.30
2022-09-30T06:27:31.370Z,3.43
2022-09-30T06:28:03.450Z,3.47
2022-09-30T06:28:35.588Z,3.57
2022-09-30T06:29:07.918Z,3.60
2022-09-30T06:29:40.006Z,3.70
2022-09-30T06:30:12.347Z,3.57
2022-09-30T06:30:44.653Z,3.80
2022-09-30T06:31:16.663Z,3.77
2022-09-30T06:31:48.711Z,3.67
2022-09-30T06:32:20.776Z,3.60
2022-09-30T06:32:56.086Z,3.07
2022-09-30T06:33:28.798Z,3.60
2022-09-30T06:34:01.734Z,3.77
2022-09-30T06:34:33.738Z,3.50
2022-09-30T06:35:06.005Z,3.57
2022-09-30T06:35:38.190Z,3.73
2022-09-30T06:36:10.477Z,3.73
2022-09-30T06:36:42.404Z,3.90
2022-09-30T06:37:16.063Z,3.43
2022-09-30T06:37:50.498Z,3.30
2022-09-30T06:38:23.200Z,3.27
2022-09-30T06:38:55.386Z,3.70
2022-09-30T06:39:27.936Z,3.60
2022-09-30T06:39:59.931Z,3.53
2022-09-30T06:40:31.892Z,3.50
2022-09-30T06:41:04.312Z,3.57
2022-09-30T06:41:39.734Z,3.40
2022-09-30T06:42:12.580Z,3.43
2022-09-30T06:42:44.714Z,3.40
2022-09-30T06:43:17.312Z,3.43
2022-09-30T06:44:00.928Z,3.47
2022-09-30T06:44:43.443Z,3.37
2022-09-30T06:45:31.439Z,3.43
2022-09-30T06:46:14.995Z,3.57
2022-09-30T06:46:53.948Z,3.97
2022-09-30T06:47:26.657Z,3.00
2022-09-30T06:48:00.825Z,3.60
2022-09-30T06:48:38.671Z,3.70
2022-09-30T06:49:13.709Z,3.80
2022-09-30T06:49:49.657Z,3.33
2022-09-30T06:50:26.753Z,3.70
2022-09-30T06:51:02.201Z,3.60
2022-09-30T06:51:34.471Z,3.40
2022-09-30T06:52:06.499Z,3.97
2022-09-30T06:52:38.499Z,3.00
2022-09-30T06:53:11.825Z,3.60
2022-09-30T06:53:43.768Z,3.23
2022-09-30T06:54:15.734Z,3.43
2022-09-30T06:54:49.732Z,3.63
2022-09-30T06:55:24.238Z,3.50
2022-09-30T06:55:57.072Z,3.57
2022-09-30T06:56:29.097Z,4.10
2022-09-30T06:57:01.132Z,3.30
2022-09-30T06:57:33.112Z,3.37
2022-09-30T06:58:11.356Z,3.80
2022-09-30T06:58:45.249Z,3.73
2022-09-30T06:59:17.261Z,3.20
2022-09-30T06:59:49.386Z,3.60
2022-09-30T07:00:21.760Z,3.27
2022-09-30T07:01:03.710Z,3.30
2022-09-30T07:01:36.013Z,3.53
2022-09-30T07:02:09.703Z,3.60
2022-09-30T07:02:41.797Z,3.27
2022-09-30T07:03:21.976Z,3.17
2022-09-30T07:03:57.903Z,3.70
2022-09-30T07:04:30.206Z,3.30
2022-09-30T07:05:04.154Z,3.30
2022-09-30T07:05:36.662Z,3.47
2022-09-30T07:06:08.889Z,3.03
2022-09-30T07:06:41.766Z,3.67
2022-09-30T07:07:13.943Z,3.50
2022-09-30T07:07:45.928Z,3.07
2022-09-30T07:08:17.965Z,3.10
2022-09-30T07:08:49.908Z,3.43
2022-09-30T07:09:21.889Z,3.33
2022-09-30T07:09:58.905Z,3.80
2022-09-30T07:10:31.681Z,3.40
2022-09-30T07:11:17.105Z,3.67
2022-09-30T07:11:49.047Z,3.80
2022-09-30T07:12:21.540Z,3.00
2022-09-30T07:12:53.708Z,3.83
2022-09-30T07:13:25.732Z,3.60
2022-09-30T07:13:57.899Z,3.50
2022-09-30T07:14:30.224Z,3.63
2022-09-30T07:15:02.362Z,3.43
2022-09-30T07:15:34.298Z,3.70
2022-09-30T07:16:06.496Z,3.50
2022-09-30T07:16:38.676Z,3.47
2022-09-30T07:17:10.846Z,3.20
2022-09-30T07:17:43.338Z,3.40
2022-09-30T07:18:20.538Z,3.53
2022-09-30T07:18:52.531Z,3.30
2022-09-30T07:19:24.658Z,3.27
2022-09-30T07:19:56.727Z,3.70
2022-09-30T07:20:28.662Z,3.60
2022-09-30T07:21:00.661Z,3.33
2022-09-30T07:21:32.745Z,3.13
2022-09-30T07:22:23.546Z,3.20
2022-09-30T07:22:55.597Z,3.47
2022-09-30T07:23:27.712Z,3.30
2022-09-30T07:24:00.156Z,3.67
2022-09-30T07:24:32.116Z,3.70
2022-09-30T07:25:04.730Z,3.40
2022-09-30T07:25:36.765Z,3.57
2022-09-30T07:26:08.712Z,3.90
2022-09-30T07:26:40.751Z,3.67
2022-09-30T07:27:13.649Z,3.33
2022-09-30T07:27:46.772Z,3.23
2022-09-30T07:28:18.773Z,3.40
2022-09-30T07:28:51.223Z,3.50
2022-09-30T07:29:23.277Z,3.40
2022-09-30T07:30:09.190Z,3.33
2022-09-30T07:30:43.507Z,3.90
2022-09-30T07:31:32.519Z,3.50
2022-09-30T07:32:05.452Z,3.67
2022-09-30T07:32:37.648Z,3.90
2022-09-30T07:33:11.121Z,3.40
2022-09-30T07:33:43.660Z,3.10
2022-09-30T07:34:15.659Z,3.70
2022-09-30T07:34:48.015Z,3.07
2022-09-30T07:35:20.177Z,3.90
2022-09-30T07:35:55.625Z,3.60
2022-09-30T07:36:32.202Z,3.77
2022-09-30T07:37:04.925Z,3.60
2022-09-30T07:37:37.092Z,3.80
2022-09-30T07:38:09.748Z,3.60
2022-09-30T07:38:41.955Z,4.00
2022-09-30T07:39:13.919Z,3.40
2022-09-30T07:39:46.946Z,3.40
2022-09-30T07:40:18.979Z,3.70
2022-09-30T07:41:02.428Z,3.70
2022-09-30T07:41:36.035Z,3.57
2022-09-30T07:42:08.097Z,3.73
2022-09-30T07:42:45.859Z,3.60
2022-09-30T07:43:19.042Z,3.40
2022-09-30T07:43:51.099Z,3.90
2022-09-30T07:44:26.901Z,4.10
2022-09-30T07:44:59.144Z,3.33
2022-09-30T07:45:31.155Z,3.53
2022-09-30T07:46:04.423Z,3.50